Keret — UAEH — position and weather

sailwx.info

Track history (hours):
 
Tides and Currents Weather Stations Pressure Air Temp Water Temp Dewpoint Dewpoint Depression Visibility Wind Speed Wind Dir Waves Ship Positions

Keret

Last reported at 2014-Oct-25 22:07 UTC. Time now 2014-Oct-31 21:29 UTC.
Position N 59°57' E 030°24'.

Length 82 m; draft 3.2 m.

Type: Cargo ship. MMSI: 273333000.

Date/timePositionNaut miles runAvg speedWind from/ knotsBaromVisibWave heightAir tempDewpointWater temp
2014-Oct-25 22:07N 59°57' E 030°24'4 6.4
2014-Oct-25 21:33N 59°56' E 030°17'0 0.2
2014-Oct-25 20:33N 59°56' E 030°17'0 0.0
2014-Oct-25 19:33N 59°56' E 030°17'0 0.0
2014-Oct-25 18:33N 59°56' E 030°17'0 0.0
2014-Oct-25 17:33N 59°56' E 030°17'0 0.0
2014-Oct-25 16:33N 59°56' E 030°17'2 2.4
2014-Oct-25 15:33N 59°55' E 030°12'2 0.0
2014-Oct-23 16:19N 59°55' E 030°16'1 1.6
2014-Oct-23 15:33N 59°56' E 030°17'0 0.0
2014-Oct-23 14:26N 59°56' E 030°17'0 0.0
2014-Oct-23 09:33N 59°56' E 030°17'0 0.0
2014-Oct-23 07:14N 59°56' E 030°17'0 0.0
2014-Oct-23 06:29N 59°56' E 030°17'0 0.0
2014-Oct-23 05:24N 59°56' E 030°17'2 0.4
2014-Oct-22 23:33N 59°57' E 030°21'  
Track history (hours):
 
Tides and Currents Weather Stations Pressure Air Temp Water Temp Dewpoint Dewpoint Depression Visibility Wind Speed Wind Dir Waves Ship Positions

Keret

Last reported at 2014-Oct-25 22:07 UTC. Time now 2014-Oct-31 21:29 UTC.
Position N 59°57' E 030°24'.

Length 82 m; draft 3.2 m.

Type: Cargo ship. MMSI: 273333000.

Date/timePositionNaut miles runAvg speedWind from/ knotsBaromVisibWave heightAir tempDewpointWater temp
2014-Oct-25 22:07N 59°57' E 030°24'4 6.4
2014-Oct-25 21:33N 59°56' E 030°17'0 0.2
2014-Oct-25 20:33N 59°56' E 030°17'0 0.0
2014-Oct-25 19:33N 59°56' E 030°17'0 0.0
2014-Oct-25 18:33N 59°56' E 030°17'0 0.0
2014-Oct-25 17:33N 59°56' E 030°17'0 0.0
2014-Oct-25 16:33N 59°56' E 030°17'2 2.4
2014-Oct-25 15:33N 59°55' E 030°12'2 0.0
2014-Oct-23 16:19N 59°55' E 030°16'1 1.6
2014-Oct-23 15:33N 59°56' E 030°17'0 0.0
2014-Oct-23 14:26N 59°56' E 030°17'0 0.0
2014-Oct-23 09:33N 59°56' E 030°17'0 0.0
2014-Oct-23 07:14N 59°56' E 030°17'0 0.0
2014-Oct-23 06:29N 59°56' E 030°17'0 0.0
2014-Oct-23 05:24N 59°56' E 030°17'2 0.4
2014-Oct-22 23:33N 59°57' E 030°21'  

Dump ship's entire track history